Terminal Aerodrome Forecast
Issued by NWS

Home | Current Version | Previous Version | Text Only | Print | Product List | Glossary On
Versions: 1 2 3 4 5 6 7 8 9 10 11 12 13 14 15 16 17 18 19 20 21
000
FTUS44 KSJT 032100 AAA
TAFSOA
TAF AMD
KSOA 032108Z 0321/0418 13010KT P6SM SCT040
     FM040300 15006KT P6SM SCT250
     FM041000 17007KT P6SM OVC015
     FM041700 18008G14KT P6SM OVC050=

USA.gov is the U.S. government's official web portal to all federal, state and local government web resources and services.